createdAt,value
2023-02-22T00:00:48.834Z,11.85
2023-02-22T00:03:18.839Z,10.38
2023-02-22T00:05:48.003Z,10.77
2023-02-22T00:08:17.188Z,10.50
2023-02-22T00:10:47.208Z,8.57
2023-02-22T00:13:15.853Z,9.63
2023-02-22T00:15:44.349Z,10.23
2023-02-22T00:18:15.125Z,10.27
2023-02-22T00:20:43.943Z,11.88
2023-02-22T00:23:18.984Z,11.38
2023-02-22T00:25:49.698Z,9.73
2023-02-22T00:28:18.945Z,8.52
2023-02-22T00:30:48.273Z,8.10
2023-02-22T00:33:17.321Z,10.88
2023-02-22T00:35:46.815Z,7.47
2023-02-22T00:38:17.253Z,9.15
2023-02-22T00:40:46.352Z,11.80
2023-02-22T00:43:16.312Z,11.43
2023-02-22T00:45:44.627Z,9.23
2023-02-22T00:48:13.223Z,9.38
2023-02-22T00:50:41.740Z,13.18
2023-02-22T00:53:10.428Z,10.48
2023-02-22T00:55:39.272Z,8.65
2023-02-22T00:58:08.413Z,7.65
2023-02-22T01:00:40.214Z,8.35
2023-02-22T01:03:11.523Z,11.27
2023-02-22T01:05:40.234Z,9.82
2023-02-22T01:08:11.988Z,8.88
2023-02-22T01:10:41.032Z,9.30
2023-02-22T01:13:12.289Z,9.63
2023-02-22T01:15:44.889Z,8.07
2023-02-22T01:18:17.333Z,11.13
2023-02-22T01:20:48.026Z,8.38
2023-02-22T01:23:17.433Z,10.30
2023-02-22T01:25:45.940Z,10.05
2023-02-22T01:28:15.319Z,10.20
2023-02-22T01:30:45.031Z,7.72
2023-02-22T01:33:15.621Z,9.53
2023-02-22T01:35:46.203Z,10.55
2023-02-22T01:40:44.727Z,8.88
2023-02-22T01:43:21.323Z,8.55
2023-02-22T01:46:00.682Z,10.88
2023-02-22T01:48:32.824Z,7.80
2023-02-22T01:51:03.615Z,9.85
2023-02-22T01:53:34.325Z,12.15
2023-02-22T01:56:02.676Z,8.60
2023-02-22T01:58:34.268Z,13.45
2023-02-22T02:01:03.939Z,10.25
2023-02-22T02:03:34.893Z,9.77
2023-02-22T02:06:05.477Z,8.05
2023-02-22T02:08:37.606Z,9.88
2023-02-22T02:11:09.326Z,15.07
2023-02-22T02:13:38.135Z,10.68
2023-02-22T02:16:08.183Z,10.38
2023-02-22T02:18:36.629Z,9.27
2023-02-22T02:21:40.053Z,10.52
2023-02-22T02:24:44.372Z,10.02
2023-02-22T02:27:18.607Z,9.05
2023-02-22T02:30:13.097Z,9.88
2023-02-22T02:32:49.792Z,10.25
2023-02-22T02:35:22.769Z,8.77
2023-02-22T02:37:58.598Z,9.75
2023-02-22T02:40:33.454Z,9.65
2023-02-22T02:43:06.243Z,9.02
2023-02-22T02:45:37.935Z,7.82
2023-02-22T02:48:10.951Z,7.03
2023-02-22T02:50:42.630Z,7.35
2023-02-22T02:53:11.271Z,8.85
2023-02-22T02:55:39.494Z,10.15
2023-02-22T02:58:08.825Z,9.32
2023-02-22T03:00:40.971Z,12.73
2023-02-22T03:03:25.295Z,10.10
2023-02-22T03:06:06.064Z,8.82
2023-02-22T03:08:40.757Z,10.93
2023-02-22T03:11:16.047Z,11.23
2023-02-22T03:13:52.886Z,12.35
2023-02-22T03:16:25.629Z,8.82
2023-02-22T03:18:57.856Z,11.77
2023-02-22T03:21:33.706Z,8.85
2023-02-22T03:24:07.557Z,9.07
2023-02-22T03:26:37.452Z,8.35
2023-02-22T03:29:06.960Z,11.80
2023-02-22T03:31:38.320Z,14.00
2023-02-22T03:34:09.835Z,13.43
2023-02-22T03:36:42.720Z,15.52
2023-02-22T03:39:16.016Z,16.02
2023-02-22T03:41:48.504Z,16.35
2023-02-22T03:44:20.033Z,13.90
2023-02-22T03:46:49.892Z,15.85
2023-02-22T03:49:24.500Z,7.05
2023-02-22T03:51:52.910Z,11.88
2023-02-22T03:54:21.154Z,8.73
2023-02-22T03:56:52.033Z,10.05
2023-02-22T03:59:25.247Z,7.88
2023-02-22T04:01:53.630Z,8.90
2023-02-22T04:04:23.978Z,12.48
2023-02-22T04:06:54.227Z,10.02
2023-02-22T04:09:22.437Z,10.85
2023-02-22T04:11:50.706Z,6.90
2023-02-22T04:14:18.936Z,11.95
2023-02-22T04:16:47.182Z,14.05
2023-02-22T04:19:15.441Z,10.13
2023-02-22T04:21:45.010Z,12.27
2023-02-22T04:24:13.297Z,9.50
2023-02-22T04:26:41.665Z,9.82
2023-02-22T04:29:09.894Z,13.70
2023-02-22T04:31:38.240Z,11.88
2023-02-22T04:34:06.579Z,10.38
2023-02-22T04:36:34.934Z,11.95
2023-02-22T04:39:05.186Z,11.07
2023-02-22T04:41:34.548Z,11.40
2023-02-22T04:44:02.856Z,8.85
2023-02-22T04:46:31.444Z,9.30
2023-02-22T04:48:59.767Z,9.77
2023-02-22T04:51:28.029Z,10.02
2023-02-22T04:53:56.319Z,11.85
2023-02-22T04:56:26.066Z,9.10
2023-02-22T04:58:54.286Z,14.43
2023-02-22T05:01:23.545Z,10.80
2023-02-22T05:03:51.985Z,8.48
2023-02-22T05:06:20.309Z,9.40
2023-02-22T05:08:48.595Z,13.25
2023-02-22T05:11:17.041Z,10.50
2023-02-22T05:13:46.872Z,8.63
2023-02-22T05:16:15.372Z,11.60
2023-02-22T05:18:43.714Z,10.60
2023-02-22T05:21:13.593Z,11.77
2023-02-22T05:23:42.012Z,7.55
2023-02-22T05:26:11.609Z,10.05
2023-02-22T05:28:40.194Z,9.68
2023-02-22T05:31:09.865Z,14.02
2023-02-22T05:33:39.680Z,9.87
2023-02-22T05:36:08.899Z,10.00
2023-02-22T05:38:43.194Z,15.27
2023-02-22T05:41:12.459Z,10.20
2023-02-22T05:43:41.540Z,10.52
2023-02-22T05:46:11.400Z,10.43
2023-02-22T05:48:39.730Z,12.35
2023-02-22T05:51:09.646Z,10.52
2023-02-22T05:53:38.039Z,13.73
2023-02-22T05:56:06.885Z,11.57
2023-02-22T05:58:35.195Z,13.02
2023-02-22T06:01:03.639Z,17.60
2023-02-22T06:03:33.259Z,18.58
2023-02-22T06:06:01.582Z,17.60
2023-02-22T06:08:29.848Z,15.52
2023-02-22T06:10:58.103Z,14.02
2023-02-22T06:13:26.331Z,14.43
2023-02-22T06:15:54.591Z,13.13
2023-02-22T06:18:22.786Z,13.35
2023-02-22T06:20:52.402Z,13.20
2023-02-22T06:23:20.630Z,13.73
2023-02-22T06:25:49.490Z,16.58
2023-02-22T06:28:17.709Z,10.50
2023-02-22T06:30:46.180Z,14.75
2023-02-22T06:33:14.436Z,12.13
2023-02-22T06:35:42.616Z,16.02
2023-02-22T06:38:12.303Z,16.88
2023-02-22T06:40:40.536Z,11.70
2023-02-22T06:43:08.788Z,12.93
2023-02-22T06:45:37.046Z,14.65
2023-02-22T06:48:05.337Z,12.88
2023-02-22T06:50:35.866Z,13.98
2023-02-22T06:53:04.525Z,14.23
2023-02-22T06:55:35.503Z,13.55
2023-02-22T06:58:04.986Z,11.18
2023-02-22T07:00:33.732Z,16.10
2023-02-22T07:03:02.507Z,13.48
2023-02-22T07:05:31.000Z,14.52
2023-02-22T07:08:04.560Z,13.50
2023-02-22T07:10:35.518Z,13.73
2023-02-22T07:13:04.967Z,14.68
2023-02-22T07:15:34.625Z,15.77
2023-02-22T07:18:03.123Z,13.90
2023-02-22T07:20:32.063Z,12.40
2023-02-22T07:23:01.272Z,12.32
2023-02-22T07:25:29.545Z,12.05
2023-02-22T07:27:59.636Z,14.40
2023-02-22T07:30:31.172Z,13.48
2023-02-22T07:33:00.939Z,17.50
2023-02-22T07:35:33.418Z,12.93
2023-02-22T07:38:01.622Z,15.23
2023-02-22T07:40:30.220Z,11.80
2023-02-22T07:43:00.923Z,12.32
2023-02-22T07:47:58.159Z,14.32
2023-02-22T07:50:27.902Z,16.95
2023-02-22T07:52:57.416Z,11.50
2023-02-22T07:55:27.130Z,10.68
2023-02-22T07:57:57.078Z,12.37
2023-02-22T08:00:28.811Z,10.20
2023-02-22T08:02:57.696Z,10.63
2023-02-22T08:05:27.145Z,9.25
2023-02-22T08:07:55.415Z,12.50
2023-02-22T08:10:24.983Z,7.53
2023-02-22T08:12:54.314Z,7.65
2023-02-22T08:15:24.402Z,9.00
2023-02-22T08:17:54.452Z,7.47
2023-02-22T08:20:23.420Z,9.88
2023-02-22T08:22:52.032Z,10.27
2023-02-22T08:25:22.603Z,8.77
2023-02-22T08:27:50.838Z,9.48
2023-02-22T08:30:22.499Z,7.47
2023-02-22T08:32:51.283Z,9.48
2023-02-22T08:35:23.071Z,6.13
2023-02-22T08:37:53.270Z,7.32
2023-02-22T08:40:23.774Z,7.00
2023-02-22T08:42:52.257Z,7.50
2023-02-22T08:45:20.933Z,10.15
2023-02-22T08:47:49.568Z,5.65
2023-02-22T08:50:21.221Z,8.05
2023-02-22T08:52:51.100Z,8.27
2023-02-22T08:55:21.408Z,6.53
2023-02-22T08:57:50.662Z,5.90
2023-02-22T09:00:19.815Z,7.40
2023-02-22T09:02:48.093Z,7.28
2023-02-22T09:05:17.029Z,6.40
2023-02-22T09:07:46.743Z,6.55
2023-02-22T09:10:16.686Z,5.40
2023-02-22T09:12:45.102Z,7.60
2023-02-22T09:15:13.541Z,4.93
2023-02-22T09:17:41.757Z,6.20
2023-02-22T09:20:12.431Z,5.60
2023-02-22T09:22:40.956Z,5.10
2023-02-22T09:25:16.748Z,5.35
2023-02-22T09:27:48.119Z,6.57
2023-02-22T09:32:48.782Z,4.65
2023-02-22T09:35:17.165Z,4.75
2023-02-22T09:37:45.550Z,5.70
2023-02-22T09:40:25.009Z,5.72
2023-02-22T09:43:01.695Z,10.18
2023-02-22T09:45:35.011Z,8.65
2023-02-22T09:48:19.401Z,6.90
2023-02-22T09:50:52.519Z,7.57
2023-02-22T09:56:01.725Z,6.15
2023-02-22T09:58:33.676Z,4.60
2023-02-22T10:01:14.400Z,6.63
2023-02-22T10:06:17.450Z,6.10
2023-02-22T10:08:46.226Z,6.82
2023-02-22T10:11:31.020Z,5.82
2023-02-22T10:14:07.614Z,7.18
2023-02-22T10:16:39.775Z,6.55
2023-02-22T10:19:18.250Z,4.82
2023-02-22T10:21:59.582Z,6.32
2023-02-22T10:24:38.469Z,5.15
2023-02-22T10:27:15.880Z,7.75
2023-02-22T10:29:47.165Z,4.20
2023-02-22T10:32:18.011Z,6.20
2023-02-22T10:34:49.547Z,11.65
2023-02-22T10:37:23.927Z,5.85
2023-02-22T10:39:56.049Z,4.82
2023-02-22T10:42:27.565Z,5.60
2023-02-22T10:44:55.827Z,5.18
2023-02-22T10:47:24.976Z,5.60
2023-02-22T10:49:55.626Z,6.30
2023-02-22T10:52:28.042Z,3.65
2023-02-22T10:55:13.739Z,7.00
2023-02-22T10:57:46.427Z,7.60
2023-02-22T11:00:19.733Z,3.08
2023-02-22T11:02:52.605Z,3.63
2023-02-22T11:05:29.881Z,3.70
2023-02-22T11:08:17.153Z,3.45
2023-02-22T11:10:45.376Z,5.22
2023-02-22T11:13:26.865Z,4.93
2023-02-22T11:15:55.484Z,4.05
2023-02-22T11:18:26.817Z,3.95
2023-02-22T11:21:07.809Z,4.80
2023-02-22T11:23:37.261Z,4.32
2023-02-22T11:26:09.256Z,4.03
2023-02-22T11:28:49.213Z,4.70
2023-02-22T11:31:20.224Z,5.78
2023-02-22T11:33:52.833Z,4.32
2023-02-22T11:36:40.857Z,5.15
2023-02-22T11:39:23.238Z,5.85
2023-02-22T11:41:51.677Z,4.88
2023-02-22T11:44:26.508Z,4.28
2023-02-22T11:46:55.926Z,5.28
2023-02-22T11:49:25.665Z,4.60
2023-02-22T11:52:03.349Z,4.72
2023-02-22T11:54:42.757Z,4.20
2023-02-22T11:57:28.849Z,5.70
2023-02-22T12:00:16.016Z,3.83
2023-02-22T12:02:57.305Z,4.00
2023-02-22T12:05:37.681Z,4.57
2023-02-22T12:08:19.643Z,3.00
2023-02-22T12:10:58.673Z,4.90
2023-02-22T12:13:39.625Z,4.63
2023-02-22T12:16:17.543Z,6.65
2023-02-22T12:18:58.941Z,4.53
2023-02-22T12:21:29.902Z,6.10
2023-02-22T12:24:03.336Z,6.20
2023-02-22T12:26:34.252Z,5.95
2023-02-22T12:29:07.551Z,5.50
2023-02-22T12:31:40.602Z,4.47
2023-02-22T12:34:15.600Z,4.85
2023-02-22T12:36:46.955Z,4.80
2023-02-22T12:39:29.090Z,4.45
2023-02-22T12:41:57.972Z,4.63
2023-02-22T12:44:30.411Z,4.05
2023-02-22T12:47:02.400Z,6.15
2023-02-22T12:49:37.882Z,4.28
2023-02-22T12:52:21.181Z,3.97
2023-02-22T12:54:56.185Z,6.00
2023-02-22T12:57:28.654Z,3.30
2023-02-22T13:00:00.427Z,3.55
2023-02-22T13:02:34.095Z,3.60
2023-02-22T13:05:02.568Z,3.75
2023-02-22T13:07:39.477Z,4.72
2023-02-22T13:10:23.360Z,5.32
2023-02-22T13:12:57.370Z,4.47
2023-02-22T13:15:31.827Z,3.78
2023-02-22T13:18:10.607Z,4.80
2023-02-22T13:20:41.925Z,3.60
2023-02-22T13:23:12.888Z,4.15
2023-02-22T13:25:46.105Z,4.03
2023-02-22T13:28:24.455Z,4.35
2023-02-22T13:31:04.998Z,4.97
2023-02-22T13:36:15.560Z,4.47
2023-02-22T13:39:10.396Z,6.75
2023-02-22T13:42:00.577Z,4.70
2023-02-22T13:45:10.358Z,5.63
2023-02-22T13:48:14.106Z,5.43
2023-02-22T13:51:07.170Z,4.70
2023-02-22T13:53:43.778Z,3.75
2023-02-22T13:56:12.731Z,4.93
2023-02-22T13:58:49.560Z,5.95
2023-02-22T14:01:40.675Z,4.00
2023-02-22T14:04:37.137Z,4.45
2023-02-22T14:07:57.161Z,3.95
2023-02-22T14:10:50.087Z,5.03
2023-02-22T14:13:19.677Z,4.13
2023-02-22T14:16:22.375Z,4.00
2023-02-22T14:18:52.004Z,3.13
2023-02-22T14:21:21.487Z,4.80
2023-02-22T14:23:52.147Z,6.75
2023-02-22T14:26:27.162Z,3.67
2023-02-22T14:28:57.116Z,5.32
2023-02-22T14:31:36.010Z,6.38
2023-02-22T14:34:08.601Z,4.30
2023-02-22T14:36:42.765Z,4.13
2023-02-22T14:39:19.240Z,4.40
2023-02-22T14:41:53.813Z,3.55
2023-02-22T14:44:26.674Z,3.90
2023-02-22T14:46:58.218Z,3.97
2023-02-22T14:49:30.413Z,6.55
2023-02-22T14:52:03.899Z,4.20
2023-02-22T14:54:39.827Z,7.22
2023-02-22T14:57:15.798Z,5.78
2023-02-22T14:59:54.141Z,4.80
2023-02-22T15:02:25.985Z,5.88
2023-02-22T15:04:55.855Z,7.07
2023-02-22T15:07:28.189Z,8.05
2023-02-22T15:10:20.630Z,6.00
2023-02-22T15:13:08.682Z,4.32
2023-02-22T15:15:38.976Z,4.20
2023-02-22T15:18:16.176Z,3.83
2023-02-22T15:20:48.205Z,5.38
2023-02-22T15:23:16.819Z,4.93
2023-02-22T15:25:50.723Z,3.97
2023-02-22T15:28:19.575Z,4.97
2023-02-22T15:30:47.817Z,4.15
2023-02-22T15:33:19.751Z,3.28
2023-02-22T15:35:54.739Z,5.35
2023-02-22T15:38:28.751Z,4.55
2023-02-22T15:41:02.648Z,4.50
2023-02-22T15:43:32.291Z,5.38
2023-02-22T15:46:01.351Z,6.07
2023-02-22T15:48:31.603Z,4.60
2023-02-22T15:51:07.216Z,6.47
2023-02-22T15:53:40.973Z,7.70
2023-02-22T15:56:14.650Z,9.23
2023-02-22T15:58:43.502Z,6.35
2023-02-22T16:01:14.251Z,5.70
2023-02-22T16:03:47.082Z,5.90
2023-02-22T16:06:29.077Z,9.98
2023-02-22T16:09:00.905Z,8.88
2023-02-22T16:11:36.022Z,3.92
2023-02-22T16:14:08.352Z,6.32
2023-02-22T16:16:41.889Z,5.75
2023-02-22T16:19:34.084Z,6.68
2023-02-22T16:22:06.464Z,6.30
2023-02-22T16:24:37.998Z,9.27
2023-02-22T16:27:20.176Z,12.40
2023-02-22T16:30:23.241Z,10.38
2023-02-22T16:32:53.964Z,10.00
2023-02-22T16:35:22.315Z,6.22
2023-02-22T16:37:53.063Z,8.32
2023-02-22T16:40:23.623Z,8.55
2023-02-22T16:45:22.507Z,6.93
2023-02-22T16:47:53.592Z,6.50
2023-02-22T16:50:21.997Z,9.18
2023-02-22T16:52:50.699Z,9.10
2023-02-22T16:55:20.441Z,6.22
2023-02-22T16:57:49.555Z,7.78
2023-02-22T17:00:31.016Z,6.18
2023-02-22T17:02:59.624Z,8.32
2023-02-22T17:05:27.905Z,6.63
2023-02-22T17:07:56.359Z,5.88
2023-02-22T17:10:26.134Z,6.97
2023-02-22T17:12:54.611Z,9.40
2023-02-22T17:15:27.214Z,4.70
2023-02-22T17:17:56.494Z,9.73
2023-02-22T17:20:30.054Z,7.07
2023-02-22T17:22:59.177Z,7.22
2023-02-22T17:25:29.744Z,5.65
2023-02-22T17:27:58.166Z,6.78
2023-02-22T17:30:28.137Z,7.07
2023-02-22T17:33:03.582Z,8.00
2023-02-22T17:35:35.081Z,9.70
2023-02-22T17:38:06.422Z,5.72
2023-02-22T17:40:35.032Z,8.40
2023-02-22T17:43:03.580Z,8.75
2023-02-22T17:45:33.133Z,8.32
2023-02-22T17:48:01.356Z,6.00
2023-02-22T17:50:31.677Z,9.30
2023-02-22T17:53:01.557Z,9.50
2023-02-22T17:55:30.336Z,11.30
2023-02-22T17:57:59.193Z,10.45
2023-02-22T18:00:33.965Z,8.18
2023-02-22T18:03:06.646Z,6.65
2023-02-22T18:05:39.595Z,9.27
2023-02-22T18:08:08.401Z,11.73
2023-02-22T18:10:36.980Z,11.23
2023-02-22T18:13:05.310Z,7.15
2023-02-22T18:15:35.575Z,8.98
2023-02-22T18:18:06.029Z,14.15
2023-02-22T18:20:38.462Z,11.70
2023-02-22T18:23:08.253Z,10.20
2023-02-22T18:25:37.258Z,9.23
2023-02-22T18:28:06.861Z,6.78
2023-02-22T18:30:36.327Z,23.15
2023-02-22T18:33:06.863Z,18.35
2023-02-22T18:35:35.108Z,21.38
2023-02-22T18:38:03.335Z,15.45
2023-02-22T18:40:31.573Z,14.65
2023-02-22T18:42:59.838Z,13.05
2023-02-22T18:45:28.178Z,9.93
2023-02-22T18:47:56.366Z,11.82
2023-02-22T18:50:26.227Z,11.70
2023-02-22T18:52:55.374Z,12.85
2023-02-22T18:55:24.008Z,13.88
2023-02-22T18:57:52.245Z,14.85
2023-02-22T19:00:24.220Z,12.90
2023-02-22T19:02:53.694Z,11.48
2023-02-22T19:05:22.518Z,10.32
2023-02-22T19:07:52.347Z,10.35
2023-02-22T19:10:22.293Z,13.13
2023-02-22T19:12:50.537Z,10.77
2023-02-22T19:15:18.884Z,11.13
2023-02-22T19:17:47.418Z,9.95
2023-02-22T19:20:15.686Z,12.30
2023-02-22T19:22:45.644Z,15.07
2023-02-22T19:25:15.302Z,9.75
2023-02-22T19:27:44.381Z,10.52
2023-02-22T19:32:47.502Z,10.73
2023-02-22T19:35:26.096Z,10.68
2023-02-22T19:37:55.635Z,13.45
2023-02-22T19:40:25.468Z,13.70
2023-02-22T19:42:55.247Z,12.35
2023-02-22T19:45:24.310Z,9.80
2023-02-22T19:47:55.108Z,9.68
2023-02-22T19:50:23.525Z,9.93
2023-02-22T19:52:53.503Z,11.60
2023-02-22T19:55:21.744Z,9.43
2023-02-22T19:57:51.357Z,9.50
2023-02-22T20:00:24.441Z,9.95
2023-02-22T20:02:58.437Z,11.90
2023-02-22T20:05:26.684Z,12.73
2023-02-22T20:07:54.861Z,9.75
2023-02-22T20:10:23.090Z,14.23
2023-02-22T20:12:52.630Z,7.28
2023-02-22T20:15:21.811Z,10.68
2023-02-22T20:17:50.673Z,12.88
2023-02-22T20:20:19.697Z,10.63
2023-02-22T20:22:47.950Z,13.90
2023-02-22T20:25:16.299Z,17.17
2023-02-22T20:27:44.553Z,12.10
2023-02-22T20:30:18.100Z,14.43
2023-02-22T20:32:46.595Z,13.05
2023-02-22T20:35:16.511Z,11.23
2023-02-22T20:37:44.757Z,12.30
2023-02-22T20:40:13.036Z,10.95
2023-02-22T20:42:41.552Z,10.57
2023-02-22T20:45:11.964Z,11.57
2023-02-22T20:47:41.670Z,14.25
2023-02-22T20:50:09.958Z,15.13
2023-02-22T20:52:38.212Z,12.45
2023-02-22T20:55:11.421Z,11.50
2023-02-22T20:57:39.699Z,16.55
2023-02-22T21:00:10.532Z,16.13
2023-02-22T21:02:39.373Z,16.88
2023-02-22T21:05:09.633Z,17.30
2023-02-22T21:07:37.868Z,13.00
2023-02-22T21:10:07.061Z,14.32
2023-02-22T21:12:37.094Z,16.33
2023-02-22T21:15:07.042Z,13.43
2023-02-22T21:17:36.794Z,15.30
2023-02-22T21:20:12.226Z,14.77
2023-02-22T21:22:43.780Z,16.48
2023-02-22T21:25:14.003Z,16.77
2023-02-22T21:27:42.242Z,16.17
2023-02-22T21:30:11.744Z,14.23
2023-02-22T21:32:40.066Z,14.73
2023-02-22T21:35:09.207Z,14.00
2023-02-22T21:37:37.705Z,15.75
2023-02-22T21:40:11.955Z,14.75
2023-02-22T21:42:40.230Z,14.45
2023-02-22T21:45:10.008Z,14.38
2023-02-22T21:47:38.933Z,14.95
2023-02-22T21:50:10.303Z,13.80
2023-02-22T21:52:38.535Z,13.75
2023-02-22T21:55:09.560Z,15.05
2023-02-22T21:57:38.688Z,12.88
2023-02-22T22:00:18.235Z,14.00
2023-02-22T22:02:48.006Z,17.48
2023-02-22T22:05:17.408Z,16.75
2023-02-22T22:07:45.712Z,16.48
2023-02-22T22:10:18.308Z,18.27
2023-02-22T22:12:47.110Z,18.73
2023-02-22T22:15:16.361Z,19.30
2023-02-22T22:17:44.905Z,18.85
2023-02-22T22:20:15.150Z,22.20
2023-02-22T22:22:45.427Z,17.55
2023-02-22T22:25:17.186Z,15.55
2023-02-22T22:27:46.008Z,19.02
2023-02-22T22:30:16.873Z,19.13
2023-02-22T22:32:45.392Z,18.70
2023-02-22T22:35:15.464Z,20.60
2023-02-22T22:37:44.571Z,15.00
2023-02-22T22:40:15.714Z,19.20
2023-02-22T22:42:44.021Z,15.45
2023-02-22T22:45:17.117Z,16.20
2023-02-22T22:47:46.690Z,18.65
2023-02-22T22:50:15.713Z,17.67
2023-02-22T22:52:44.132Z,18.13
2023-02-22T22:55:12.879Z,21.30
2023-02-22T22:57:43.097Z,22.05
2023-02-22T23:00:34.391Z,20.38
2023-02-22T23:03:05.454Z,20.83
2023-02-22T23:05:38.109Z,16.90
2023-02-22T23:08:10.564Z,20.20
2023-02-22T23:10:40.128Z,23.20
2023-02-22T23:13:10.926Z,21.02
2023-02-22T23:15:42.914Z,21.67
2023-02-22T23:35:34.171Z,22.10
2023-02-22T23:38:02.428Z,18.63
2023-02-22T23:40:30.677Z,24.02
2023-02-22T23:43:03.980Z,28.00
2023-02-22T23:45:38.533Z,25.95
2023-02-22T23:48:07.410Z,22.48
2023-02-22T23:50:36.944Z,25.20
2023-02-22T23:53:06.048Z,25.52
2023-02-22T23:55:39.065Z,23.30
2023-02-22T23:58:07.442Z,26.20
